Time;durP1;ratioP1;P1;durP2;ratioP2;P2;SDS_P1;SDS_P2;PMS_P1;PMS_P2;Temp;Humidity;BMP_temperature;BMP_pressure;BME280_temperature;BME280_humidity;BME280_pressure;Samples;Min_cycle;Max_cycle;Signal;HPM_P1;HPM_P2
2023/03/07 00:01:02;;;;;;;8.73;4.93;;;4.90;99.90;;;;;;5026384;28;20785;-66
2023/03/07 00:03:31;;;;;;;13.37;5.20;;;5.00;99.90;;;;;;5022980;28;20279;-68
2023/03/07 00:06:05;;;;;;;10.23;4.83;;;5.00;99.90;;;;;;5026213;28;20543;-66
2023/03/07 00:08:34;;;;;;;10.97;4.80;;;5.00;99.90;;;;;;5022693;28;20201;-67
2023/03/07 00:11:07;;;;;;;13.13;4.97;;;5.00;99.90;;;;;;5027597;28;20318;-67
2023/03/07 00:13:37;;;;;;;14.50;5.47;;;5.00;99.90;;;;;;5027047;28;20229;-67
2023/03/07 00:16:07;;;;;;;14.20;6.00;;;5.00;99.90;;;;;;5028175;28;20218;-66
2023/03/07 00:18:36;;;;;;;9.47;5.90;;;5.00;99.90;;;;;;5026624;28;20225;-66
2023/03/07 00:21:08;;;;;;;14.57;5.77;;;5.00;99.90;;;;;;5024544;28;20189;-65
2023/03/07 00:23:38;;;;;;;13.37;5.80;;;5.10;99.90;;;;;;5035028;28;20187;-68
2023/03/07 00:26:07;;;;;;;16.30;6.23;;;5.00;99.90;;;;;;5031030;28;20308;-67
2023/03/07 00:28:35;;;;;;;15.50;6.77;;;5.00;99.90;;;;;;5012898;28;20707;-67
2023/03/07 00:31:06;;;;;;;12.77;6.67;;;5.00;99.90;;;;;;5030325;28;20225;-67
2023/03/07 00:33:36;;;;;;;12.23;6.67;;;5.00;99.90;;;;;;5032782;28;20661;-67
2023/03/07 00:36:07;;;;;;;21.90;7.23;;;5.00;99.90;;;;;;5027513;28;20206;-66
2023/03/07 00:38:37;;;;;;;14.77;7.17;;;5.00;99.90;;;;;;5029692;28;20181;-67
2023/03/07 00:41:07;;;;;;;16.57;8.00;;;5.00;99.90;;;;;;5027877;28;20217;-67
2023/03/07 00:43:36;;;;;;;15.27;7.43;;;5.00;99.90;;;;;;5027275;28;20580;-67
2023/03/07 00:46:06;;;;;;;14.47;8.13;;;5.00;99.90;;;;;;5025919;28;20222;-67
2023/03/07 00:48:36;;;;;;;19.67;8.17;;;5.10;99.90;;;;;;5024657;28;20225;-67
2023/03/07 00:51:09;;;;;;;21.93;8.00;;;5.10;99.90;;;;;;5020783;28;20197;-66
2023/03/07 00:53:38;;;;;;;14.20;8.10;;;5.10;99.90;;;;;;5028347;28;20186;-68
2023/03/07 00:56:11;;;;;;;14.77;8.60;;;5.10;99.90;;;;;;5026993;28;20236;-67
2023/03/07 00:58:40;;;;;;;21.70;8.53;;;5.20;99.90;;;;;;5028771;28;20694;-67
2023/03/07 01:01:11;;;;;;;23.33;8.90;;;5.10;99.90;;;;;;5025598;28;20222;-67
2023/03/07 01:03:39;;;;;;;16.10;8.40;;;5.10;99.90;;;;;;5027188;28;20833;-67
2023/03/07 01:06:12;;;;;;;23.17;8.80;;;5.10;99.90;;;;;;5025805;28;20251;-66
2023/03/07 01:08:41;;;;;;;18.87;9.40;;;5.10;99.90;;;;;;5022939;28;20206;-67
2023/03/07 01:11:10;;;;;;;18.77;8.93;;;5.10;99.90;;;;;;5024216;28;20233;-67
2023/03/07 01:13:39;;;;;;;20.37;9.90;;;5.10;99.90;;;;;;5027830;28;20617;-67
2023/03/07 01:16:08;;;;;;;27.53;9.90;;;5.10;99.90;;;;;;5014747;28;20862;-68
2023/03/07 01:18:37;;;;;;;16.87;9.40;;;5.10;99.90;;;;;;5004656;28;20230;-67
2023/03/07 01:21:14;;;;;;;20.10;9.80;;;5.10;99.90;;;;;;4995129;28;20190;-67
2023/03/07 01:23:42;;;;;;;20.13;9.60;;;5.10;99.90;;;;;;5012492;28;20228;-67
2023/03/07 01:26:14;;;;;;;20.00;10.27;;;5.10;99.90;;;;;;5005163;28;20288;-67
2023/03/07 01:28:42;;;;;;;19.10;9.30;;;5.10;99.90;;;;;;5004622;28;20348;-67
2023/03/07 01:31:11;;;;;;;25.63;10.93;;;5.20;99.90;;;;;;5005472;28;20209;-67
2023/03/07 01:33:40;;;;;;;22.67;10.00;;;5.10;99.90;;;;;;5012675;28;20731;-67
2023/03/07 01:36:17;;;;;;;23.20;10.87;;;5.10;99.90;;;;;;5025166;28;20196;-66
2023/03/07 01:38:46;;;;;;;24.40;10.67;;;5.10;99.90;;;;;;5008503;28;20197;-67
2023/03/07 01:41:14;;;;;;;21.40;11.00;;;5.10;99.90;;;;;;5003245;28;20218;-68
2023/03/07 01:43:42;;;;;;;22.93;10.83;;;5.00;99.90;;;;;;5008093;28;20241;-67
2023/03/07 01:46:45;;;;;;;22.13;10.83;;;5.00;99.90;;;;;;5017324;28;20695;-67
2023/03/07 01:49:19;;;;;;;20.67;10.47;;;5.00;99.90;;;;;;5027860;28;20301;-67
2023/03/07 01:51:52;;;;;;;22.40;10.90;;;5.00;99.90;;;;;;5021099;28;20232;-67
2023/03/07 01:54:23;;;;;;;27.07;11.90;;;5.00;99.90;;;;;;5025310;28;20224;-66
2023/03/07 01:56:52;;;;;;;24.57;12.03;;;5.00;99.90;;;;;;5026928;28;20225;-67
2023/03/07 01:59:27;;;;;;;22.20;11.60;;;4.90;99.90;;;;;;5025985;28;20241;-67
2023/03/07 02:02:01;;;;;;;23.27;11.60;;;4.90;99.90;;;;;;5024845;28;20232;-67
2023/03/07 02:04:33;;;;;;;23.90;11.73;;;4.90;99.90;;;;;;5009549;28;20222;-66
2023/03/07 02:07:03;;;;;;;27.03;11.27;;;4.90;99.90;;;;;;5005603;28;20219;-66
2023/03/07 02:09:33;;;;;;;23.50;11.50;;;4.90;99.90;;;;;;4994139;28;20207;-66
2023/03/07 02:12:02;;;;;;;24.27;11.30;;;4.90;99.90;;;;;;5001930;28;20194;-66
2023/03/07 02:14:30;;;;;;;25.00;12.33;;;4.90;99.90;;;;;;4995865;28;20257;-67
2023/03/07 02:16:59;;;;;;;21.97;12.03;;;4.90;99.90;;;;;;4998097;28;20268;-67
2023/03/07 02:19:41;;;;;;;20.10;9.87;;;4.90;99.90;;;;;;4998466;28;20260;-67
2023/03/07 02:22:13;;;;;;;22.43;11.07;;;4.90;99.90;;;;;;4995406;28;20680;-67
2023/03/07 02:24:48;;;;;;;23.87;12.83;;;4.90;99.90;;;;;;5002710;28;20221;-67
2023/03/07 02:27:18;;;;;;;23.73;12.03;;;4.80;99.90;;;;;;4999143;28;20220;-66
2023/03/07 02:29:46;;;;;;;24.40;11.97;;;4.80;99.90;;;;;;4999445;28;20279;-67
2023/03/07 02:32:15;;;;;;;21.53;12.20;;;4.90;99.90;;;;;;5017444;28;20263;-67
2023/03/07 02:34:43;;;;;;;25.97;12.43;;;4.90;99.90;;;;;;5020044;28;20710;-67
2023/03/07 02:37:18;;;;;;;21.67;10.87;;;4.90;99.90;;;;;;5022583;28;20270;-67
2023/03/07 02:39:47;;;;;;;30.67;12.30;;;4.90;99.90;;;;;;5011963;28;20294;-66
2023/03/07 02:42:21;;;;;;;27.83;12.43;;;4.90;99.90;;;;;;5001562;28;20198;-66
2023/03/07 02:44:56;;;;;;;21.13;11.47;;;4.90;99.90;;;;;;5003943;28;20225;-66
2023/03/07 02:47:25;;;;;;;23.73;11.60;;;4.90;99.90;;;;;;5000843;28;20681;-67
2023/03/07 02:49:53;;;;;;;23.63;11.83;;;4.90;99.90;;;;;;5000228;28;20264;-67
2023/03/07 02:52:22;;;;;;;26.57;12.33;;;4.80;99.90;;;;;;5003302;28;20289;-67
2023/03/07 02:54:50;;;;;;;22.40;12.13;;;4.90;99.90;;;;;;4998868;28;20236;-67
2023/03/07 02:57:20;;;;;;;19.47;11.23;;;4.90;99.90;;;;;;5001737;28;20218;-66
2023/03/07 02:59:48;;;;;;;23.87;11.57;;;4.90;99.90;;;;;;5000506;28;21434;-67
2023/03/07 03:02:16;;;;;;;23.27;13.00;;;4.90;99.90;;;;;;5002811;28;20264;-67
2023/03/07 03:04:45;;;;;;;26.00;12.20;;;4.90;99.90;;;;;;4998735;28;20224;-67
2023/03/07 03:07:13;;;;;;;21.53;11.80;;;4.90;99.90;;;;;;4998736;28;20577;-67
2023/03/07 03:09:41;;;;;;;23.23;11.87;;;4.90;99.90;;;;;;5000480;28;20281;-67
2023/03/07 03:12:10;;;;;;;26.13;12.47;;;4.90;99.90;;;;;;4989804;28;20206;-66
2023/03/07 03:14:40;;;;;;;27.07;12.77;;;4.90;99.90;;;;;;5002967;28;20248;-67
2023/03/07 03:17:08;;;;;;;23.00;12.53;;;4.90;99.90;;;;;;5020095;28;20225;-67
2023/03/07 03:19:37;;;;;;;21.47;12.33;;;4.90;99.90;;;;;;5004177;28;20222;-67
2023/03/07 03:22:05;;;;;;;25.73;12.33;;;4.90;99.90;;;;;;5001263;28;20270;-66
2023/03/07 03:24:33;;;;;;;21.80;12.57;;;4.90;99.90;;;;;;5009101;28;20233;-66
2023/03/07 03:27:02;;;;;;;27.17;12.67;;;4.80;99.90;;;;;;5025058;28;20197;-66
2023/03/07 03:29:30;;;;;;;22.77;12.87;;;4.80;99.90;;;;;;5009484;28;22068;-67
2023/03/07 03:31:59;;;;;;;22.10;12.13;;;4.80;99.90;;;;;;5010643;28;20221;-67
2023/03/07 03:34:28;;;;;;;19.70;11.27;;;4.80;99.90;;;;;;5013306;28;20259;-67
2023/03/07 03:36:56;;;;;;;22.30;11.87;;;4.80;99.90;;;;;;5022149;28;20229;-68
2023/03/07 03:39:25;;;;;;;22.43;11.53;;;4.80;99.90;;;;;;5023724;28;20252;-67
2023/03/07 03:41:53;;;;;;;23.53;11.67;;;4.80;99.90;;;;;;5021039;28;20193;-67
2023/03/07 03:44:21;;;;;;;20.93;11.03;;;4.80;99.90;;;;;;5007707;28;20218;-67
2023/03/07 03:46:50;;;;;;;20.30;11.13;;;4.80;99.90;;;;;;5008470;28;20264;-67
2023/03/07 03:49:20;;;;;;;21.47;12.13;;;4.80;99.90;;;;;;5006399;28;20353;-66
2023/03/07 03:51:48;;;;;;;19.70;11.33;;;4.80;99.90;;;;;;5001760;28;20263;-66
2023/03/07 03:54:16;;;;;;;23.03;11.37;;;4.90;99.90;;;;;;5005098;28;20347;-66
2023/03/07 03:56:44;;;;;;;28.07;12.03;;;4.80;99.90;;;;;;5019787;28;20281;-67
2023/03/07 03:59:12;;;;;;;21.00;11.97;;;4.80;99.90;;;;;;5008155;28;20222;-67
2023/03/07 04:01:41;;;;;;;24.63;12.67;;;4.80;99.90;;;;;;5004745;28;20222;-67
2023/03/07 04:04:09;;;;;;;22.50;11.93;;;4.80;99.90;;;;;;5002756;28;20214;-66
2023/03/07 04:06:39;;;;;;;21.00;11.67;;;4.80;99.90;;;;;;5002253;28;20210;-66
2023/03/07 04:09:09;;;;;;;21.73;11.53;;;4.80;99.90;;;;;;4999892;28;20318;-66
2023/03/07 04:11:37;;;;;;;22.87;12.40;;;4.80;99.90;;;;;;5006027;28;20213;-67
2023/03/07 04:14:06;;;;;;;26.10;12.93;;;4.80;99.90;;;;;;5010485;28;20218;-66
2023/03/07 04:16:34;;;;;;;23.53;12.20;;;4.80;99.90;;;;;;5026121;28;20310;-67
2023/03/07 04:19:02;;;;;;;23.87;12.73;;;4.80;99.90;;;;;;5006549;28;20234;-67
2023/03/07 04:21:31;;;;;;;18.70;12.07;;;4.80;99.90;;;;;;5001504;28;20229;-67
2023/03/07 04:24:00;;;;;;;23.93;12.43;;;4.90;99.90;;;;;;5007805;28;20194;-66
2023/03/07 04:26:29;;;;;;;19.40;12.20;;;4.90;99.90;;;;;;5001123;28;20261;-67
2023/03/07 04:28:58;;;;;;;20.03;12.00;;;4.90;99.90;;;;;;5002144;28;20280;-67
2023/03/07 04:31:27;;;;;;;19.93;11.90;;;4.90;99.90;;;;;;5001067;28;20559;-67
2023/03/07 04:33:57;;;;;;;22.03;11.70;;;4.90;99.90;;;;;;5010518;28;20226;-67
2023/03/07 04:36:26;;;;;;;18.33;10.73;;;4.90;99.90;;;;;;5001499;28;20592;-67
2023/03/07 04:38:54;;;;;;;19.83;11.53;;;4.90;99.90;;;;;;5007945;28;20518;-67
2023/03/07 04:41:25;;;;;;;17.73;10.97;;;4.90;99.90;;;;;;5008252;28;20245;-67
2023/03/07 04:43:53;;;;;;;21.33;11.03;;;5.00;99.90;;;;;;5002021;28;20209;-67
2023/03/07 04:46:22;;;;;;;21.77;11.20;;;4.90;99.90;;;;;;5005962;28;20218;-67
2023/03/07 04:48:50;;;;;;;19.40;11.07;;;5.00;99.90;;;;;;5005907;28;20215;-67
2023/03/07 04:51:18;;;;;;;19.87;11.13;;;4.90;99.90;;;;;;5003488;28;20201;-66
2023/03/07 04:53:47;;;;;;;21.43;10.80;;;4.90;99.90;;;;;;5007428;28;20240;-67
2023/03/07 04:56:15;;;;;;;19.67;11.03;;;4.90;99.90;;;;;;5008622;28;20226;-67
2023/03/07 04:58:45;;;;;;;24.30;12.33;;;4.90;99.90;;;;;;5002750;28;20628;-67
2023/03/07 05:01:14;;;;;;;19.47;11.53;;;5.00;99.90;;;;;;5007190;28;20625;-66
2023/03/07 05:03:42;;;;;;;19.63;10.93;;;4.90;99.90;;;;;;5005093;28;20218;-66
2023/03/07 05:06:14;;;;;;;22.97;12.47;;;4.80;99.90;;;;;;5009242;28;20350;-66
2023/03/07 05:08:43;;;;;;;23.93;12.87;;;4.80;99.90;;;;;;5006509;28;20668;-67
2023/03/07 05:11:11;;;;;;;18.97;11.13;;;4.80;99.90;;;;;;5005152;28;20330;-67
2023/03/07 05:13:39;;;;;;;19.17;10.83;;;4.80;99.90;;;;;;5011035;28;20226;-67
2023/03/07 05:16:09;;;;;;;19.00;11.20;;;4.80;99.90;;;;;;5008666;28;20738;-67
2023/03/07 05:18:37;;;;;;;17.93;10.80;;;4.80;99.90;;;;;;5009760;28;20396;-67
2023/03/07 05:21:05;;;;;;;14.63;10.40;;;4.80;99.90;;;;;;5000955;28;20248;-66
2023/03/07 05:23:34;;;;;;;17.00;10.53;;;4.90;99.90;;;;;;5001887;28;20205;-67
2023/03/07 05:26:02;;;;;;;18.70;11.07;;;4.80;99.90;;;;;;5003986;28;20230;-67
2023/03/07 05:28:30;;;;;;;17.90;10.67;;;4.80;99.90;;;;;;5009178;28;20218;-67
2023/03/07 05:30:59;;;;;;;16.83;9.87;;;4.80;99.90;;;;;;5003007;28;20251;-67
2023/03/07 05:33:28;;;;;;;15.10;10.53;;;4.80;99.90;;;;;;5001577;28;20222;-67
2023/03/07 05:35:59;;;;;;;16.37;10.23;;;4.80;99.90;;;;;;5004193;28;20198;-67
2023/03/07 05:38:28;;;;;;;16.63;10.70;;;4.80;99.90;;;;;;5002965;28;20264;-67
2023/03/07 05:40:56;;;;;;;17.57;10.47;;;4.80;99.90;;;;;;5021408;28;20916;-67
2023/03/07 05:43:24;;;;;;;22.23;10.27;;;4.80;99.90;;;;;;5028247;28;20302;-66
2023/03/07 05:45:53;;;;;;;20.10;10.63;;;4.80;99.90;;;;;;5028470;28;20275;-67
2023/03/07 05:48:21;;;;;;;17.20;10.77;;;4.90;99.90;;;;;;5028705;28;20225;-66
2023/03/07 05:50:51;;;;;;;17.43;11.30;;;4.90;99.90;;;;;;5026736;28;20310;-66
2023/03/07 05:53:19;;;;;;;19.30;11.90;;;4.80;99.90;;;;;;5019739;28;20247;-68
2023/03/07 05:55:47;;;;;;;18.03;10.80;;;4.90;99.90;;;;;;5025285;28;20652;-67
2023/03/07 05:58:15;;;;;;;19.23;10.67;;;4.80;99.90;;;;;;5022320;28;20229;-67
2023/03/07 06:00:43;;;;;;;21.90;11.97;;;4.80;99.90;;;;;;5015747;28;20229;-67
2023/03/07 06:03:12;;;;;;;21.03;10.87;;;4.90;99.90;;;;;;5017306;28;20193;-67
2023/03/07 06:05:40;;;;;;;18.83;11.33;;;4.80;99.90;;;;;;5024881;28;20243;-68
2023/03/07 06:08:10;;;;;;;23.13;11.93;;;4.80;99.90;;;;;;5019972;28;20236;-67
2023/03/07 06:10:38;;;;;;;23.10;11.67;;;4.80;99.90;;;;;;5018019;28;20263;-67
2023/03/07 06:13:07;;;;;;;19.77;11.67;;;4.80;99.90;;;;;;5022172;28;20311;-68
2023/03/07 06:15:35;;;;;;;20.37;12.20;;;4.80;99.90;;;;;;5016408;28;20274;-68
2023/03/07 06:18:05;;;;;;;18.37;10.93;;;4.80;99.90;;;;;;5023842;28;20205;-66
2023/03/07 06:20:33;;;;;;;17.53;10.00;;;4.80;99.90;;;;;;5024386;28;20273;-67
2023/03/07 06:23:01;;;;;;;17.20;10.10;;;4.80;99.90;;;;;;5014790;28;20253;-67
2023/03/07 06:25:31;;;;;;;18.43;10.93;;;4.80;99.90;;;;;;5021651;28;20625;-68
2023/03/07 06:27:59;;;;;;;19.20;10.97;;;4.80;99.90;;;;;;5023009;28;20213;-67
2023/03/07 06:30:28;;;;;;;18.47;11.13;;;4.80;99.90;;;;;;5022485;28;20236;-66
2023/03/07 06:32:56;;;;;;;19.73;11.37;;;4.80;99.90;;;;;;5001226;28;20188;-67
2023/03/07 06:35:25;;;;;;;17.90;11.53;;;4.80;99.90;;;;;;5014335;28;20217;-67
2023/03/07 06:37:53;;;;;;;21.17;11.03;;;4.90;99.90;;;;;;5012165;28;20226;-66
2023/03/07 06:40:21;;;;;;;20.50;11.67;;;4.90;99.90;;;;;;5027335;28;20803;-66
2023/03/07 06:42:52;;;;;;;20.63;10.93;;;4.90;99.90;;;;;;5014616;28;20213;-68
2023/03/07 06:45:20;;;;;;;24.07;11.50;;;4.90;99.90;;;;;;5023339;28;20308;-66
2023/03/07 06:47:48;;;;;;;22.00;13.07;;;4.90;99.90;;;;;;5021500;28;20787;-67
2023/03/07 06:50:16;;;;;;;21.77;11.43;;;5.00;99.90;;;;;;5017390;28;20279;-67
2023/03/07 06:52:56;;;;;;;21.93;12.00;;;5.00;99.90;;;;;;5004233;28;20248;-67
2023/03/07 06:55:27;;;;;;;20.23;11.50;;;5.00;99.90;;;;;;5000384;28;20229;-67
2023/03/07 06:57:56;;;;;;;22.63;11.63;;;5.00;99.90;;;;;;4998989;28;20228;-67
2023/03/07 07:00:24;;;;;;;23.60;12.80;;;5.10;99.90;;;;;;5000674;28;20226;-67
2023/03/07 07:02:53;;;;;;;23.53;12.13;;;5.10;99.90;;;;;;5000020;28;20197;-68
2023/03/07 07:05:22;;;;;;;16.50;10.53;;;5.10;99.90;;;;;;5002146;28;20313;-67
2023/03/07 07:07:50;;;;;;;20.30;11.33;;;5.20;99.90;;;;;;5002219;28;20246;-67
2023/03/07 07:10:18;;;;;;;21.90;11.40;;;5.20;99.90;;;;;;5004502;28;21593;-67
2023/03/07 07:12:46;;;;;;;17.47;10.70;;;5.20;99.90;;;;;;5006098;28;20225;-67
2023/03/07 07:15:16;;;;;;;20.90;11.20;;;5.20;99.90;;;;;;5002701;28;20225;-66
2023/03/07 07:17:44;;;;;;;20.83;11.47;;;5.30;99.90;;;;;;5003177;28;20199;-66
2023/03/07 07:20:13;;;;;;;23.10;10.90;;;5.30;99.90;;;;;;5006735;28;20222;-66
2023/03/07 07:22:41;;;;;;;21.03;11.20;;;5.30;99.90;;;;;;5002864;28;21051;-67
2023/03/07 07:25:10;;;;;;;17.53;10.60;;;5.30;99.90;;;;;;5008818;28;20263;-66
2023/03/07 07:27:38;;;;;;;15.37;10.33;;;5.30;99.90;;;;;;5009937;28;20272;-66
2023/03/07 07:30:08;;;;;;;16.63;10.33;;;5.30;99.90;;;;;;5000691;28;20198;-66
2023/03/07 07:32:38;;;;;;;16.73;10.53;;;5.30;99.90;;;;;;4999955;28;20925;-66
2023/03/07 07:35:07;;;;;;;21.50;11.10;;;5.30;99.90;;;;;;5002693;28;20249;-67
2023/03/07 07:37:35;;;;;;;21.87;10.17;;;5.30;99.90;;;;;;5010344;28;20719;-66
2023/03/07 07:40:05;;;;;;;20.43;10.70;;;5.30;99.90;;;;;;5018268;28;20217;-66
2023/03/07 07:42:33;;;;;;;16.03;10.07;;;5.30;99.90;;;;;;5024964;28;20865;-66
2023/03/07 07:45:01;;;;;;;16.43;9.57;;;5.40;99.90;;;;;;5018669;28;20198;-66
2023/03/07 07:47:29;;;;;;;14.13;9.57;;;5.40;99.90;;;;;;5025055;28;20201;-67
2023/03/07 07:49:58;;;;;;;10.43;8.27;;;5.40;99.90;;;;;;5022452;28;20229;-67
2023/03/07 07:52:27;;;;;;;15.17;9.00;;;5.40;99.90;;;;;;5023740;28;20277;-67
2023/03/07 07:54:55;;;;;;;12.83;9.20;;;5.30;99.90;;;;;;5022440;28;20225;-66
2023/03/07 07:57:24;;;;;;;13.97;8.93;;;5.40;99.90;;;;;;5019461;28;20283;-67
2023/03/07 07:59:52;;;;;;;10.47;7.77;;;5.30;99.90;;;;;;5017865;28;20190;-67
2023/03/07 08:02:20;;;;;;;9.50;7.13;;;5.30;99.90;;;;;;5021281;28;20210;-67
2023/03/07 08:04:48;;;;;;;12.40;7.47;;;5.40;99.90;;;;;;5025047;28;20691;-67
2023/03/07 08:07:18;;;;;;;7.37;6.40;;;5.30;99.90;;;;;;5025551;28;20245;-67
2023/03/07 08:09:46;;;;;;;9.87;6.20;;;5.30;99.90;;;;;;5022296;28;20205;-67
2023/03/07 08:12:15;;;;;;;9.03;6.30;;;5.30;99.90;;;;;;5023058;28;20213;-67
2023/03/07 08:14:43;;;;;;;9.30;6.77;;;5.30;99.90;;;;;;5027421;28;20202;-67
2023/03/07 08:17:11;;;;;;;9.70;6.93;;;5.30;99.90;;;;;;5022873;28;20217;-68
2023/03/07 08:19:40;;;;;;;12.93;6.20;;;5.30;99.90;;;;;;5022979;28;20229;-67
2023/03/07 08:22:08;;;;;;;8.97;5.70;;;5.30;99.90;;;;;;5023977;28;20276;-67
2023/03/07 08:24:38;;;;;;;8.73;5.43;;;5.30;99.90;;;;;;5021649;28;20237;-67
2023/03/07 08:27:08;;;;;;;7.03;6.33;;;5.30;99.90;;;;;;5026426;28;20194;-67
2023/03/07 08:29:36;;;;;;;8.47;6.33;;;5.30;99.90;;;;;;5027429;28;20189;-67
2023/03/07 08:32:05;;;;;;;9.33;6.33;;;5.20;99.90;;;;;;5022187;28;20217;-67
2023/03/07 08:34:33;;;;;;;7.27;5.20;;;5.20;99.90;;;;;;5027916;28;20236;-67
2023/03/07 08:37:02;;;;;;;4.90;4.50;;;5.20;99.90;;;;;;5023251;28;20249;-67
2023/03/07 08:39:33;;;;;;;5.47;4.97;;;5.10;99.90;;;;;;5024296;28;20229;-67
2023/03/07 08:42:03;;;;;;;8.07;5.50;;;5.00;99.90;;;;;;5025821;28;20227;-66
2023/03/07 08:44:31;;;;;;;6.80;6.10;;;4.90;99.90;;;;;;5026480;28;20214;-67
2023/03/07 08:46:59;;;;;;;6.30;5.63;;;4.90;99.90;;;;;;5028089;28;20275;-67
2023/03/07 08:49:28;;;;;;;6.13;5.47;;;4.90;99.90;;;;;;5024544;28;20217;-67
2023/03/07 08:51:56;;;;;;;7.33;5.97;;;4.80;99.90;;;;;;5026739;28;20252;-67
2023/03/07 08:54:24;;;;;;;6.90;6.20;;;4.90;99.90;;;;;;5018624;28;20318;-67
2023/03/07 08:56:52;;;;;;;7.70;6.33;;;4.90;99.90;;;;;;5029181;28;20257;-67
2023/03/07 08:59:22;;;;;;;7.20;6.13;;;4.90;99.90;;;;;;5012390;28;20225;-67
2023/03/07 09:01:50;;;;;;;6.40;5.80;;;5.00;99.90;;;;;;5022785;28;20213;-67
2023/03/07 09:04:19;;;;;;;9.77;6.17;;;5.00;99.90;;;;;;5024994;28;20217;-66
2023/03/07 09:06:47;;;;;;;8.23;6.63;;;5.00;99.90;;;;;;5024134;28;20245;-67
2023/03/07 09:09:15;;;;;;;7.93;5.90;;;5.10;99.90;;;;;;5023963;28;20208;-66
2023/03/07 09:11:44;;;;;;;9.40;6.30;;;5.10;99.90;;;;;;5024795;28;20309;-67
2023/03/07 09:14:12;;;;;;;8.23;6.53;;;5.10;99.90;;;;;;5023495;28;20221;-67
2023/03/07 09:16:42;;;;;;;10.17;6.63;;;5.10;99.90;;;;;;5025933;28;20268;-66
2023/03/07 09:19:10;;;;;;;8.57;6.37;;;5.10;99.90;;;;;;5006980;28;20232;-66
2023/03/07 09:21:39;;;;;;;7.53;6.83;;;5.10;99.90;;;;;;5028621;28;20209;-66
2023/03/07 09:24:08;;;;;;;12.27;7.03;;;5.10;99.90;;;;;;5030878;28;20189;-66
2023/03/07 09:26:36;;;;;;;7.07;6.37;;;5.20;99.90;;;;;;5026007;28;20244;-67
2023/03/07 09:29:04;;;;;;;11.53;6.90;;;5.20;99.90;;;;;;5029252;28;20686;-66
2023/03/07 09:31:33;;;;;;;9.27;6.83;;;5.20;99.90;;;;;;5028516;28;20221;-67
2023/03/07 09:34:04;;;;;;;9.20;6.33;;;5.20;99.90;;;;;;5029031;28;20213;-66
2023/03/07 09:36:32;;;;;;;9.50;7.07;;;5.20;99.90;;;;;;5022472;28;20223;-66
2023/03/07 09:39:00;;;;;;;8.03;6.60;;;5.20;99.90;;;;;;5023429;28;20197;-66
2023/03/07 09:41:55;;;;;;;13.80;7.37;;;5.20;99.90;;;;;;5022552;28;20225;-66
2023/03/07 09:44:35;;;;;;;11.53;7.67;;;5.20;99.90;;;;;;5025549;28;20684;-67
2023/03/07 09:47:20;;;;;;;11.43;8.33;;;5.20;99.90;;;;;;5027422;28;20216;-67
2023/03/07 09:49:51;;;;;;;9.93;7.73;;;5.30;99.90;;;;;;5028727;28;20400;-66
2023/03/07 09:52:22;;;;;;;14.27;7.50;;;5.20;99.90;;;;;;5022882;28;20233;-67
2023/03/07 09:54:55;;;;;;;10.27;7.30;;;5.20;99.90;;;;;;5018083;28;20245;-66
2023/03/07 09:57:28;;;;;;;7.93;5.60;;;5.30;99.90;;;;;;5023077;28;20216;-66
2023/03/07 10:00:00;;;;;;;6.67;5.93;;;5.30;99.90;;;;;;5027995;28;20614;-66
2023/03/07 10:02:33;;;;;;;7.67;6.30;;;5.50;99.90;;;;;;5020894;28;20221;-67
2023/03/07 10:05:16;;;;;;;6.77;6.07;;;5.50;99.90;;;;;;5029793;28;20224;-67
2023/03/07 10:07:45;;;;;;;8.73;5.77;;;5.50;99.90;;;;;;5026434;28;20695;-67
2023/03/07 10:10:20;;;;;;;8.17;6.00;;;5.60;99.90;;;;;;5011112;28;20229;-66
2023/03/07 10:13:14;;;;;;;8.20;6.70;;;5.60;99.90;;;;;;5019334;28;20233;-67
2023/03/07 10:15:45;;;;;;;6.53;5.93;;;5.70;99.90;;;;;;5025641;28;20307;-67
2023/03/07 10:18:28;;;;;;;6.13;5.53;;;5.70;99.90;;;;;;5026266;28;20197;-66
2023/03/07 10:21:04;;;;;;;6.10;5.23;;;5.70;99.90;;;;;;5011073;28;20197;-66
2023/03/07 10:23:55;;;;;;;6.07;5.20;;;5.60;99.90;;;;;;5000773;28;20704;-66
2023/03/07 10:26:29;;;;;;;5.50;5.03;;;5.60;99.90;;;;;;5002577;28;20279;-67
2023/03/07 10:29:01;;;;;;;7.70;5.50;;;5.70;99.90;;;;;;5020322;28;20225;-67
2023/03/07 10:31:33;;;;;;;5.90;5.30;;;5.60;99.90;;;;;;5010118;28;20254;-67
2023/03/07 10:34:12;;;;;;;6.40;5.67;;;5.60;99.90;;;;;;5003596;28;20272;-66
2023/03/07 10:37:00;;;;;;;6.33;5.70;;;5.60;99.90;;;;;;5007374;28;20214;-66
2023/03/07 10:39:42;;;;;;;7.90;6.27;;;5.50;99.90;;;;;;5002804;28;20210;-66
2023/03/07 10:42:12;;;;;;;9.23;6.67;;;5.50;99.90;;;;;;5002590;28;20185;-66
2023/03/07 10:44:44;;;;;;;11.33;7.53;;;5.50;99.90;;;;;;5006513;28;20240;-66
2023/03/07 10:47:19;;;;;;;7.87;6.30;;;5.50;99.90;;;;;;4997830;28;20224;-66
2023/03/07 10:49:49;;;;;;;8.33;5.90;;;5.50;99.90;;;;;;5004249;28;20214;-66
2023/03/07 10:52:32;;;;;;;6.07;5.23;;;5.50;99.90;;;;;;5007858;28;20269;-65
2023/03/07 10:55:34;;;;;;;5.57;5.03;;;5.50;99.90;;;;;;5006623;28;20692;-66
2023/03/07 10:58:18;;;;;;;4.77;4.37;;;5.50;99.90;;;;;;4915572;29;20612;-66
2023/03/07 11:00:58;;;;;;;4.70;4.30;;;5.50;99.90;;;;;;4923316;29;20260;-66
2023/03/07 11:03:32;;;;;;;4.60;4.30;;;5.40;99.90;;;;;;4977129;28;20221;-65
2023/03/07 11:06:39;;;;;;;5.20;4.70;;;5.50;99.90;;;;;;5005132;28;20281;-66
2023/03/07 11:09:23;;;;;;;4.60;4.30;;;5.50;99.90;;;;;;5003370;28;20214;-66
2023/03/07 11:11:54;;;;;;;4.70;4.40;;;5.50;99.90;;;;;;4999407;28;20214;-66
2023/03/07 11:14:23;;;;;;;5.20;4.80;;;5.60;99.90;;;;;;5007177;28;20727;-66
2023/03/07 11:16:54;;;;;;;4.87;4.50;;;5.60;99.90;;;;;;5002317;28;20308;-66
2023/03/07 11:19:35;;;;;;;5.07;4.57;;;5.60;99.90;;;;;;5001475;28;20206;-65
2023/03/07 11:22:16;;;;;;;4.70;4.30;;;5.70;99.90;;;;;;5021850;28;20204;-66
2023/03/07 11:24:52;;;;;;;4.33;4.13;;;5.70;99.90;;;;;;5021060;28;20267;-66
2023/03/07 11:27:23;;;;;;;4.43;4.13;;;5.70;99.90;;;;;;5022636;28;20699;-66
2023/03/07 11:30:17;;;;;;;3.60;3.50;;;5.80;99.90;;;;;;5011999;28;20300;-66
2023/03/07 11:32:59;;;;;;;3.87;3.67;;;5.90;99.90;;;;;;5000661;28;20256;-66
2023/03/07 11:35:43;;;;;;;3.30;3.20;;;5.90;99.90;;;;;;5001403;28;20222;-66
2023/03/07 11:38:21;;;;;;;3.47;3.27;;;6.10;99.90;;;;;;5004892;28;20224;-66
2023/03/07 11:40:56;;;;;;;3.43;3.30;;;6.20;99.90;;;;;;5000944;28;20222;-67
2023/03/07 11:43:41;;;;;;;3.63;3.43;;;6.20;99.90;;;;;;5005428;28;20193;-66
2023/03/07 11:46:16;;;;;;;3.17;3.07;;;6.20;99.90;;;;;;5024984;28;20197;-67
2023/03/07 11:48:59;;;;;;;3.20;3.10;;;6.20;99.90;;;;;;5025325;28;20216;-66
2023/03/07 11:51:40;;;;;;;3.53;3.43;;;6.30;99.90;;;;;;5024083;28;20217;-66
2023/03/07 11:54:21;;;;;;;3.60;3.40;;;6.30;99.90;;;;;;5023005;28;20256;-66
2023/03/07 11:56:54;;;;;;;3.83;3.63;;;6.30;99.90;;;;;;5021281;28;20723;-66
2023/03/07 11:59:51;;;;;;;4.07;3.80;;;6.20;99.90;;;;;;5021035;28;22084;-66
2023/03/07 12:02:50;;;;;;;4.20;4.00;;;6.10;99.90;;;;;;5022006;28;20268;-67
2023/03/07 12:05:38;;;;;;;4.20;3.93;;;6.00;99.90;;;;;;4998726;28;20213;-67
2023/03/07 12:08:32;;;;;;;4.00;3.80;;;6.00;99.90;;;;;;5024660;28;20220;-66
2023/03/07 12:11:20;;;;;;;4.20;4.00;;;6.00;99.90;;;;;;5027409;28;20734;-66
2023/03/07 12:13:58;;;;;;;4.13;3.83;;;6.00;99.90;;;;;;5029760;28;20229;-66
2023/03/07 12:16:34;;;;;;;5.10;4.00;;;6.10;99.90;;;;;;5025499;28;20259;-66
2023/03/07 12:19:33;;;;;;;4.37;4.07;;;6.10;99.90;;;;;;5025099;28;20244;-66
2023/03/07 12:22:25;;;;;;;3.70;3.40;;;6.10;99.90;;;;;;5026321;28;20221;-66
2023/03/07 12:25:19;;;;;;;4.13;3.73;;;6.10;99.90;;;;;;5025601;28;20210;-66
2023/03/07 12:27:55;;;;;;;2.90;2.70;;;6.10;99.90;;;;;;5024473;28;20249;-67
2023/03/07 12:30:31;;;;;;;2.93;2.83;;;6.00;99.90;;;;;;5027530;28;20213;-66
2023/03/07 12:32:59;;;;;;;2.73;2.70;;;6.00;99.90;;;;;;5028129;28;20843;-67
2023/03/07 12:35:32;;;;;;;3.03;2.93;;;6.00;99.90;;;;;;5027122;28;20304;-67
2023/03/07 12:38:10;;;;;;;3.10;3.00;;;6.00;99.90;;;;;;5020217;28;20230;-66
2023/03/07 12:40:41;;;;;;;2.73;2.63;;;6.00;99.90;;;;;;5008643;28;20198;-66
2023/03/07 12:43:18;;;;;;;2.70;2.60;;;6.00;99.90;;;;;;5009414;28;20601;-66
2023/03/07 12:45:56;;;;;;;2.77;2.67;;;6.00;99.90;;;;;;5025017;28;20217;-66
2023/03/07 12:48:34;;;;;;;2.87;2.67;;;5.90;99.90;;;;;;5008508;28;20222;-66
2023/03/07 12:51:09;;;;;;;2.90;2.80;;;5.90;99.90;;;;;;5007325;28;20281;-66
2023/03/07 12:53:46;;;;;;;3.00;2.90;;;5.90;99.90;;;;;;5001196;28;20359;-66
2023/03/07 12:56:18;;;;;;;2.97;2.87;;;6.00;99.90;;;;;;5017381;28;20718;-66
2023/03/07 12:58:50;;;;;;;3.20;3.10;;;6.10;99.90;;;;;;5004260;28;21938;-67
2023/03/07 13:01:25;;;;;;;3.40;3.10;;;6.10;99.90;;;;;;5006667;28;20592;-65
2023/03/07 13:04:02;;;;;;;2.80;2.70;;;6.20;99.90;;;;;;5005922;28;20218;-66
2023/03/07 13:06:31;;;;;;;2.97;2.87;;;6.20;99.90;;;;;;5006772;28;20636;-66
2023/03/07 13:09:02;;;;;;;3.20;3.00;;;6.10;99.90;;;;;;4998073;28;20253;-66